Time;durP1;ratioP1;P1;durP2;ratioP2;P2;SDS_P1;SDS_P2;PMS_P1;PMS_P2;Temp;Humidity;BMP_temperature;BMP_pressure;BME280_temperature;BME280_humidity;BME280_pressure;Samples;Min_cycle;Max_cycle;Signal;HPM_P1;HPM_P2
2021/03/30 00:01:14;;;;;;;48.22;25.92;;;307.80;1382.40;;;;;;5072970;28;20050;-63
2021/03/30 00:03:40;;;;;;;46.22;26.00;;;307.70;1356.80;;;;;;5072434;28;20017;-65
2021/03/30 00:06:06;;;;;;;45.20;24.95;;;307.80;1356.80;;;;;;5072624;28;20157;-66
2021/03/30 00:08:32;;;;;;;45.17;25.20;;;307.70;1356.80;;;;;;5071434;28;20032;-65
2021/03/30 00:10:58;;;;;;;49.33;25.08;;;307.70;1382.40;;;;;;5072588;28;20020;-63
2021/03/30 00:13:24;;;;;;;60.22;27.95;;;307.70;1356.80;;;;;;5072732;28;20385;-65
2021/03/30 00:15:50;;;;;;;58.85;29.40;;;307.70;1356.80;;;;;;5071185;28;20025;-67
2021/03/30 00:18:16;;;;;;;63.20;29.63;;;307.60;1382.40;;;;;;5072811;28;20028;-65
2021/03/30 00:20:42;;;;;;;61.28;29.13;;;307.50;1382.40;;;;;;5070940;28;20029;-67
2021/03/30 00:23:08;;;;;;;50.30;28.00;;;307.50;1382.40;;;;;;5072707;28;20047;-63
2021/03/30 00:25:34;;;;;;;56.10;27.23;;;307.40;1408.00;;;;;;5072400;28;20099;-66
2021/03/30 00:28:00;;;;;;;49.10;26.02;;;307.40;1408.00;;;;;;5072450;28;20384;-65
2021/03/30 00:30:26;;;;;;;47.60;24.48;;;307.40;1433.60;;;;;;5072515;28;20035;-65
2021/03/30 00:32:52;;;;;;;46.47;26.15;;;307.40;1459.20;;;;;;5072097;28;20373;-65
2021/03/30 00:35:18;;;;;;;45.38;25.17;;;307.20;1484.80;;;;;;5072719;28;20476;-65
2021/03/30 00:37:44;;;;;;;50.40;24.38;;;307.30;1484.80;;;;;;5071832;28;20107;-65
2021/03/30 00:40:11;;;;;;;42.50;23.48;;;307.30;1484.80;;;;;;5072437;28;20032;-65
2021/03/30 00:42:38;;;;;;;42.67;25.50;;;307.30;1484.80;;;;;;5072022;28;20100;-66
2021/03/30 00:45:06;;;;;;;48.00;26.40;;;307.20;1459.20;;;;;;5072465;28;20045;-65
2021/03/30 00:47:33;;;;;;;48.28;27.23;;;307.20;1459.20;;;;;;5071760;28;20530;-64
2021/03/30 00:50:00;;;;;;;46.67;25.70;;;307.20;1484.80;;;;;;5072311;28;20024;-63
2021/03/30 00:52:26;;;;;;;43.85;27.23;;;282.50;1459.20;;;;;;5072207;28;20032;-66
2021/03/30 00:54:52;;;;;;;57.22;29.05;;;282.50;1459.20;;;;;;5071936;28;20024;-65
2021/03/30 00:57:19;;;;;;;52.13;28.92;;;282.50;1408.00;;;;;;5072163;28;20492;-66
2021/03/30 00:59:46;;;;;;;51.00;28.20;;;282.40;1433.60;;;;;;5071695;28;20032;-66
2021/03/30 01:02:13;;;;;;;50.25;27.23;;;282.40;1433.60;;;;;;5072399;28;20045;-66
2021/03/30 01:04:39;;;;;;;41.75;26.42;;;282.30;1433.60;;;;;;5071769;28;20028;-66
2021/03/30 01:07:07;;;;;;;48.40;28.40;;;282.30;1459.20;;;;;;5072135;28;20104;-66
2021/03/30 01:09:38;;;;;;;64.45;32.17;;;282.30;1433.60;;;;;;5071839;28;20024;-65
2021/03/30 01:12:05;;;;;;;118.57;47.75;;;282.20;1433.60;;;;;;5072216;28;20366;-67
2021/03/30 01:14:49;;;;;;;117.53;45.28;;;282.20;1433.60;;;;;;5071980;28;20449;-66
2021/03/30 01:17:40;;;;;;;78.90;37.25;;;282.10;1433.60;;;;;;5071739;28;20024;-67
2021/03/30 01:20:31;;;;;;;72.22;33.30;;;282.10;1408.00;;;;;;5071885;28;20033;-65
2021/03/30 01:23:15;;;;;;;57.03;28.98;;;282.10;1433.60;;;;;;5071827;28;20123;-66
2021/03/30 01:25:50;;;;;;;58.33;30.92;;;282.10;1433.60;;;;;;5071816;28;20031;-63
2021/03/30 01:28:32;;;;;;;82.20;37.72;;;282.20;1433.60;;;;;;5084696;28;20111;-66
2021/03/30 01:30:59;;;;;;;67.68;31.15;;;282.20;1433.60;;;;;;5095718;28;20027;-63
2021/03/30 01:33:30;;;;;;;54.17;32.10;;;282.20;1433.60;;;;;;5095360;28;20073;-66
2021/03/30 01:35:57;;;;;;;52.28;27.58;;;282.30;1433.60;;;;;;5095790;28;20020;-66
2021/03/30 01:38:24;;;;;;;50.35;26.92;;;282.30;1408.00;;;;;;5095009;28;20063;-62
2021/03/30 01:40:55;;;;;;;40.97;24.70;;;282.30;1408.00;;;;;;5095767;28;20070;-66
2021/03/30 01:43:23;;;;;;;50.72;26.85;;;282.30;1382.40;;;;;;5094914;28;20095;-64
2021/03/30 01:45:56;;;;;;;45.47;26.38;;;282.30;1408.00;;;;;;5094771;28;20020;-68
2021/03/30 01:48:24;;;;;;;47.25;26.30;;;282.40;1433.60;;;;;;5094087;28;20027;-62
2021/03/30 01:50:52;;;;;;;47.75;26.48;;;282.40;1408.00;;;;;;5094716;28;20026;-64
2021/03/30 01:53:21;;;;;;;54.03;26.48;;;282.40;1408.00;;;;;;5076184;28;20020;-66
2021/03/30 01:55:52;;;;;;;46.97;25.48;;;282.40;1408.00;;;;;;5094604;28;20032;-63
2021/03/30 01:58:22;;;;;;;45.08;25.88;;;282.30;1408.00;;;;;;5094333;28;20054;-66
2021/03/30 02:00:50;;;;;;;47.45;26.80;;;282.30;1408.00;;;;;;5095082;28;20032;-63
2021/03/30 02:03:18;;;;;;;47.83;26.60;;;282.40;1382.40;;;;;;5095442;28;20078;-65
2021/03/30 02:05:44;;;;;;;44.03;26.15;;;282.40;1382.40;;;;;;5094759;28;20062;-65
2021/03/30 02:08:11;;;;;;;45.15;26.95;;;282.30;1382.40;;;;;;5077013;28;20020;-65
2021/03/30 02:13:08;;;;;;;43.80;25.20;;;282.30;1382.40;;;;;;5095608;28;20055;-68
2021/03/30 02:15:34;;;;;;;39.75;23.80;;;282.20;1382.40;;;;;;5094535;28;20027;-65
2021/03/30 02:18:08;;;;;;;42.47;24.35;;;282.10;1382.40;;;;;;5094825;28;20024;-65
2021/03/30 02:20:37;;;;;;;44.20;24.42;;;282.00;1382.40;;;;;;5095072;28;20384;-65
2021/03/30 02:23:21;;;;;;;44.75;25.13;;;282.00;1408.00;;;;;;5094781;28;20067;-66
2021/03/30 02:25:49;;;;;;;48.53;27.30;;;282.00;1408.00;;;;;;5094822;28;20020;-66
2021/03/30 02:28:17;;;;;;;44.42;26.13;;;282.00;1408.00;;;;;;5094427;28;20149;-66
2021/03/30 02:30:45;;;;;;;46.53;26.45;;;282.00;1408.00;;;;;;5094651;28;20027;-67
2021/03/30 02:33:15;;;;;;;45.20;26.83;;;282.00;1408.00;;;;;;5094334;28;20384;-66
2021/03/30 02:35:43;;;;;;;51.22;28.30;;;282.00;1408.00;;;;;;5094704;28;20023;-66
2021/03/30 02:38:09;;;;;;;55.22;28.63;;;282.00;1408.00;;;;;;5093380;28;20020;-63
2021/03/30 02:40:35;;;;;;;54.75;29.17;;;282.00;1408.00;;;;;;5094277;28;20472;-67
2021/03/30 02:43:02;;;;;;;47.17;28.33;;;282.00;1433.60;;;;;;5094201;28;20066;-67
2021/03/30 02:45:30;;;;;;;52.08;28.88;;;282.00;1459.20;;;;;;5094242;28;20118;-66
2021/03/30 02:47:59;;;;;;;49.75;29.30;;;281.90;1459.20;;;;;;5094264;28;20032;-66
2021/03/30 02:50:27;;;;;;;51.05;28.88;;;281.80;1459.20;;;;;;5094226;28;20035;-66
2021/03/30 02:52:55;;;;;;;48.88;29.13;;;281.80;1484.80;;;;;;5076256;28;20028;-63
2021/03/30 02:55:22;;;;;;;54.60;28.40;;;281.80;1484.80;;;;;;5093751;28;20028;-64
2021/03/30 02:57:49;;;;;;;53.22;29.33;;;281.80;1484.80;;;;;;5094319;28;20063;-66
2021/03/30 03:00:16;;;;;;;48.78;29.15;;;281.80;1484.80;;;;;;5093395;28;20119;-66
2021/03/30 03:02:43;;;;;;;52.25;28.95;;;281.70;1484.80;;;;;;5094338;28;20024;-65
2021/03/30 03:05:10;;;;;;;53.08;30.27;;;281.80;1484.80;;;;;;5075548;28;20048;-64
2021/03/30 03:07:38;;;;;;;52.28;29.55;;;281.80;1484.80;;;;;;5094049;28;20016;-66
2021/03/30 03:10:07;;;;;;;50.78;29.52;;;281.80;1484.80;;;;;;5075484;28;20047;-67
2021/03/30 03:12:38;;;;;;;52.13;29.17;;;281.80;1484.80;;;;;;5093885;28;20051;-67
2021/03/30 03:15:07;;;;;;;57.97;30.60;;;281.90;1484.80;;;;;;5093596;28;20026;-65
2021/03/30 03:17:35;;;;;;;49.38;29.52;;;281.90;1484.80;;;;;;5093405;28;20059;-66
2021/03/30 03:20:03;;;;;;;55.30;29.65;;;281.90;1459.20;;;;;;5055522;28;20432;-66
2021/03/30 03:22:29;;;;;;;56.42;30.17;;;281.80;1484.80;;;;;;5072981;28;20567;-62
2021/03/30 03:24:55;;;;;;;51.63;26.90;;;281.80;1484.80;;;;;;5073691;28;20020;-66
2021/03/30 03:27:21;;;;;;;48.88;29.08;;;281.90;1510.40;;;;;;5072999;28;20033;-67
2021/03/30 03:29:48;;;;;;;49.47;26.33;;;281.90;1510.40;;;;;;5073301;28;20040;-65
2021/03/30 03:32:13;;;;;;;46.08;28.13;;;281.90;1510.40;;;;;;5073210;28;20503;-65
2021/03/30 03:34:42;;;;;;;49.50;28.05;;;282.00;1484.80;;;;;;5073189;28;20067;-66
2021/03/30 03:37:08;;;;;;;47.83;26.33;;;282.10;1484.80;;;;;;5073043;28;20029;-65
2021/03/30 03:39:34;;;;;;;48.00;25.40;;;282.10;1459.20;;;;;;5072588;28;20032;-66
2021/03/30 03:41:59;;;;;;;40.15;24.75;;;282.00;1484.80;;;;;;5073164;28;20519;-65
2021/03/30 03:44:27;;;;;;;42.92;25.27;;;282.00;1484.80;;;;;;5072610;28;20032;-66
2021/03/30 03:46:53;;;;;;;41.63;23.83;;;281.90;1484.80;;;;;;5055286;28;20115;-66
2021/03/30 03:49:20;;;;;;;40.05;22.70;;;281.90;1510.40;;;;;;5072378;28;20465;-66
2021/03/30 03:51:51;;;;;;;42.70;25.17;;;281.90;1484.80;;;;;;5073020;28;20032;-66
2021/03/30 03:54:19;;;;;;;47.28;24.55;;;281.90;1484.80;;;;;;5072710;28;20029;-63
2021/03/30 03:57:03;;;;;;;48.42;26.67;;;281.80;1484.80;;;;;;5072834;28;20025;-65
2021/03/30 03:59:31;;;;;;;;;;;281.80;1484.80;;;;;;5072823;28;20040;-65
2021/03/30 04:02:22;;;;;;;41.28;23.65;;;281.70;1510.40;;;;;;5054847;28;19904;-65
2021/03/30 04:05:07;;;;;;;43.63;24.45;;;281.60;1536.00;;;;;;5072801;28;20016;-67
2021/03/30 04:07:52;;;;;;;44.58;24.30;;;281.60;1536.00;;;;;;5072619;28;20020;-66
2021/03/30 04:10:23;;;;;;;44.53;23.90;;;281.60;1536.00;;;;;;5072590;28;20052;-64
2021/03/30 04:12:49;;;;;;;38.88;23.70;;;281.60;1536.00;;;;;;5054573;28;20607;-65
2021/03/30 04:15:20;;;;;;;47.22;23.58;;;281.60;1536.00;;;;;;5072817;28;20021;-66
2021/03/30 04:17:46;;;;;;;38.70;23.13;;;281.60;1536.00;;;;;;5072306;28;20105;-66
2021/03/30 04:20:15;;;;;;;45.22;23.08;;;281.60;1561.60;;;;;;5072641;28;20036;-66
2021/03/30 04:22:43;;;;;;;40.78;23.80;;;281.60;1536.00;;;;;;5072017;28;20041;-68
2021/03/30 04:25:09;;;;;;;44.03;23.55;;;281.60;1536.00;;;;;;5072789;28;20021;-62
2021/03/30 04:27:35;;;;;;;37.80;21.58;;;281.70;1561.60;;;;;;5072116;28;20020;-66
2021/03/30 04:30:01;;;;;;;36.00;22.05;;;281.70;1561.60;;;;;;5072392;28;20028;-66
2021/03/30 04:32:27;;;;;;;37.10;20.55;;;281.70;1536.00;;;;;;5072422;28;20017;-66
2021/03/30 04:34:53;;;;;;;37.33;21.13;;;281.80;1536.00;;;;;;5072374;28;20036;-66
2021/03/30 04:37:19;;;;;;;40.08;22.83;;;281.80;1536.00;;;;;;5072424;28;20020;-66
2021/03/30 04:39:45;;;;;;;38.80;22.02;;;281.90;1536.00;;;;;;5054069;28;20036;-67
2021/03/30 04:42:11;;;;;;;36.72;21.45;;;281.80;1561.60;;;;;;5072409;28;20020;-66
2021/03/30 04:44:38;;;;;;;40.75;22.25;;;281.80;1561.60;;;;;;5054276;28;20040;-67
2021/03/30 04:47:04;;;;;;;41.00;22.50;;;281.80;1561.60;;;;;;5072472;28;20021;-64
2021/03/30 04:49:30;;;;;;;40.22;23.65;;;281.80;1536.00;;;;;;5071940;28;20048;-66
2021/03/30 04:51:55;;;;;;;34.70;22.15;;;281.80;1536.00;;;;;;5072252;28;20113;-66
2021/03/30 04:54:21;;;;;;;34.55;21.20;;;282.00;1536.00;;;;;;5072126;28;20030;-65
2021/03/30 04:56:47;;;;;;;37.85;22.23;;;281.90;1561.60;;;;;;5054195;28;20032;-67
2021/03/30 04:59:13;;;;;;;35.60;21.50;;;281.90;1561.60;;;;;;5072180;28;20512;-62
2021/03/30 05:01:39;;;;;;;40.42;22.40;;;281.90;1587.20;;;;;;5071667;28;20100;-66
2021/03/30 05:04:05;;;;;;;37.97;21.60;;;281.80;1587.20;;;;;;5076186;28;20384;-65
2021/03/30 05:06:31;;;;;;;34.35;21.73;;;281.80;1561.60;;;;;;5075470;28;20025;-67
2021/03/30 05:08:57;;;;;;;40.15;21.88;;;281.80;1587.20;;;;;;5076146;28;20035;-65
2021/03/30 05:11:23;;;;;;;39.42;22.58;;;281.70;1587.20;;;;;;5075506;28;20478;-66
2021/03/30 05:13:49;;;;;;;41.10;23.98;;;281.70;1612.80;;;;;;5075851;28;20150;-66
2021/03/30 05:16:15;;;;;;;42.95;24.10;;;281.70;1612.80;;;;;;5075723;28;20024;-65
2021/03/30 05:18:41;;;;;;;50.45;24.98;;;281.80;1612.80;;;;;;5075508;28;20034;-67
2021/03/30 05:21:08;;;;;;;45.20;24.10;;;281.80;1612.80;;;;;;5075665;28;20029;-63
2021/03/30 05:23:34;;;;;;;64.35;32.72;;;281.90;1612.80;;;;;;5075005;28;20056;-64
2021/03/30 05:26:00;;;;;;;43.50;25.35;;;281.90;1612.80;;;;;;5075827;28;20039;-63
2021/03/30 05:28:26;;;;;;;43.17;24.83;;;282.00;1612.80;;;;;;5075222;28;20020;-66
2021/03/30 05:30:52;;;;;;;49.25;28.27;;;282.00;1612.80;;;;;;5075434;28;20108;-66
2021/03/30 05:33:18;;;;;;;58.80;30.13;;;282.10;1612.80;;;;;;5075217;28;20552;-66
2021/03/30 05:35:44;;;;;;;68.75;41.60;;;282.10;1587.20;;;;;;5075436;28;20388;-67
2021/03/30 05:38:11;;;;;;;64.50;39.20;;;282.10;1587.20;;;;;;5075141;28;20025;-62
2021/03/30 05:40:36;;;;;;;55.45;35.25;;;282.20;1587.20;;;;;;5075282;28;20029;-67
2021/03/30 05:43:02;;;;;;;56.65;33.35;;;282.20;1587.20;;;;;;5075484;28;20029;-66
2021/03/30 05:45:28;;;;;;;51.20;31.48;;;282.30;1587.20;;;;;;5074820;28;20401;-63
2021/03/30 05:47:56;;;;;;;61.45;34.13;;;282.30;1587.20;;;;;;5057477;28;20052;-66
2021/03/30 05:50:23;;;;;;;83.20;46.65;;;282.40;1587.20;;;;;;5074901;28;20357;-65
2021/03/30 05:52:53;;;;;;;96.63;53.20;;;282.40;1561.60;;;;;;5075163;28;20384;-62
2021/03/30 05:55:31;;;;;;;103.10;53.95;;;282.50;1587.20;;;;;;5074819;28;20024;-66
2021/03/30 05:57:59;;;;;;;96.50;52.38;;;307.20;1612.80;;;;;;5075305;28;20029;-66
2021/03/30 06:00:39;;;;;;;86.18;47.65;;;307.20;1638.40;;;;;;5074741;28;20040;-66
2021/03/30 06:03:12;;;;;;;79.28;44.95;;;282.50;1664.00;;;;;;5074888;28;20468;-67
2021/03/30 06:05:39;;;;;;;78.03;45.30;;;282.50;1689.60;;;;;;5074862;28;20028;-66
2021/03/30 06:08:05;;;;;;;75.55;42.80;;;282.50;1715.20;;;;;;5074832;28;20504;-66
2021/03/30 06:10:33;;;;;;;54.17;35.03;;;282.50;1740.80;;;;;;5075083;28;20029;-66
2021/03/30 06:13:01;;;;;;;57.05;33.85;;;282.50;1740.80;;;;;;5073943;28;20024;-66
2021/03/30 06:15:29;;;;;;;56.45;34.15;;;282.50;1715.20;;;;;;5074106;28;20028;-63
2021/03/30 06:17:56;;;;;;;53.42;32.65;;;307.20;1740.80;;;;;;5074258;28;20024;-63
2021/03/30 06:20:28;;;;;;;51.67;32.30;;;307.20;1740.80;;;;;;5074234;28;20031;-67
2021/03/30 06:23:06;;;;;;;50.58;33.13;;;307.40;1740.80;;;;;;5087208;28;20055;-67
2021/03/30 06:25:42;;;;;;;55.05;31.35;;;307.50;1740.80;;;;;;5095102;28;20028;-66
2021/03/30 06:28:11;;;;;;;46.25;28.83;;;307.50;1766.40;;;;;;5092190;28;20157;-64
2021/03/30 06:30:39;;;;;;;48.63;29.30;;;307.60;1740.80;;;;;;5094537;28;20031;-66
2021/03/30 06:33:06;;;;;;;53.30;35.17;;;307.60;1740.80;;;;;;5094478;28;20036;-64
2021/03/30 06:35:32;;;;;;;48.42;33.42;;;307.70;1740.80;;;;;;5095127;28;20469;-67
2021/03/30 06:37:58;;;;;;;90.53;59.42;;;307.70;1715.20;;;;;;5099853;28;20035;-66
2021/03/30 06:40:32;;;;;;;148.70;69.15;;;307.80;1740.80;;;;;;5097602;28;20036;-67
2021/03/30 06:43:13;;;;;;;304.42;127.13;;;307.90;1740.80;;;;;;5094700;28;20474;-64
2021/03/30 06:45:40;;;;;;;161.73;82.35;;;307.90;1715.20;;;;;;5073751;28;20108;-66
2021/03/30 06:48:07;;;;;;;100.38;63.63;;;307.90;1715.20;;;;;;5085206;28;20031;-67
2021/03/30 06:50:34;;;;;;;55.15;32.80;;;308.00;1715.20;;;;;;5097411;28;20027;-66
2021/03/30 06:53:12;;;;;;;73.57;40.67;;;308.10;1689.60;;;;;;5100852;28;20024;-66
2021/03/30 06:55:51;;;;;;;57.35;33.25;;;332.80;1740.80;;;;;;5098813;28;20029;-65
2021/03/30 06:58:18;;;;;;;60.13;35.65;;;332.80;1740.80;;;;;;5097280;28;20381;-67
2021/03/30 07:00:45;;;;;;;67.53;38.90;;;332.90;1740.80;;;;;;5098964;28;20482;-67
2021/03/30 07:03:20;;;;;;;51.65;30.02;;;333.00;1715.20;;;;;;5100294;28;20012;-66
2021/03/30 07:05:48;;;;;;;34.15;25.17;;;333.10;1715.20;;;;;;5099900;28;20073;-66
2021/03/30 07:08:16;;;;;;;36.85;24.63;;;333.20;1689.60;;;;;;5095442;28;20423;-68
2021/03/30 07:10:47;;;;;;;39.47;27.38;;;333.30;1689.60;;;;;;5101540;28;20019;-63
2021/03/30 07:13:15;;;;;;;37.97;25.42;;;333.30;1689.60;;;;;;5105911;28;20054;-66
2021/03/30 07:15:41;;;;;;;42.38;26.33;;;333.40;1689.60;;;;;;5093994;28;20024;-67
2021/03/30 07:18:13;;;;;;;42.67;25.05;;;333.40;1664.00;;;;;;5093221;28;20055;-65
2021/03/30 07:20:43;;;;;;;41.72;25.58;;;333.40;1664.00;;;;;;5093820;28;20028;-64
2021/03/30 07:23:12;;;;;;;45.05;24.13;;;333.50;1638.40;;;;;;5093189;28;20047;-63
2021/03/30 07:25:55;;;;;;;38.00;26.48;;;333.50;1664.00;;;;;;5093299;28;20520;-68
2021/03/30 07:28:26;;;;;;;60.58;34.45;;;333.60;1638.40;;;;;;5093666;28;20044;-63
2021/03/30 07:31:01;;;;;;;87.07;44.17;;;333.60;1612.80;;;;;;5093762;28;20020;-68
2021/03/30 07:33:37;;;;;;;63.20;38.83;;;333.70;1612.80;;;;;;5093751;28;20028;-67
2021/03/30 07:36:04;;;;;;;48.75;31.52;;;358.40;1587.20;;;;;;5093743;28;20097;-69
2021/03/30 07:38:37;;;;;;;51.15;33.15;;;358.40;1561.60;;;;;;5093624;28;20028;-68
2021/03/30 07:41:03;;;;;;;48.22;29.75;;;358.50;1587.20;;;;;;5092999;28;20046;-68
2021/03/30 07:43:30;;;;;;;48.35;27.13;;;358.60;1587.20;;;;;;5093435;28;20034;-69
2021/03/30 07:46:00;;;;;;;44.13;28.15;;;358.60;1561.60;;;;;;5093102;28;20461;-67
2021/03/30 07:48:29;;;;;;;73.78;41.90;;;358.70;1561.60;;;;;;5093593;28;20091;-67
2021/03/30 07:51:14;;;;;;;81.07;47.70;;;358.70;1561.60;;;;;;5092860;28;20080;-68
2021/03/30 07:53:44;;;;;;;45.30;27.17;;;358.80;1561.60;;;;;;5093231;28;20055;-65
2021/03/30 07:56:13;;;;;;;42.47;27.90;;;358.70;1561.60;;;;;;5092995;28;20103;-62
2021/03/30 07:58:44;;;;;;;46.38;27.77;;;358.70;1561.60;;;;;;5085338;28;20047;-64
2021/03/30 08:01:12;;;;;;;64.72;35.30;;;358.70;1561.60;;;;;;5070918;28;20021;-66
2021/03/30 08:03:40;;;;;;;51.50;28.95;;;358.70;1587.20;;;;;;5072434;28;20032;-67
2021/03/30 08:06:18;;;;;;;46.17;31.25;;;358.70;1536.00;;;;;;5073026;28;20055;-67
2021/03/30 08:08:58;;;;;;;53.58;29.75;;;358.80;1536.00;;;;;;5064292;28;20029;-68
2021/03/30 08:11:55;;;;;;;39.25;25.75;;;358.80;1536.00;;;;;;5053020;28;20055;-68
2021/03/30 08:14:26;;;;;;;39.78;22.35;;;358.80;1536.00;;;;;;5052436;28;20033;-67
2021/03/30 08:16:54;;;;;;;36.38;22.10;;;358.90;1510.40;;;;;;5053184;28;20032;-68
2021/03/30 08:19:24;;;;;;;40.13;22.83;;;358.90;1510.40;;;;;;5052345;28;20033;-63
2021/03/30 08:21:54;;;;;;;52.85;30.50;;;358.90;1510.40;;;;;;5058018;28;20044;-68
2021/03/30 08:24:21;;;;;;;50.63;29.83;;;359.00;1510.40;;;;;;5072105;28;20047;-67
2021/03/30 08:26:47;;;;;;;43.28;27.52;;;359.00;1536.00;;;;;;5072706;28;20036;-68
2021/03/30 08:29:15;;;;;;;44.58;27.23;;;359.10;1536.00;;;;;;5072309;28;20162;-65
2021/03/30 08:31:43;;;;;;;42.33;27.63;;;359.20;1536.00;;;;;;5055158;28;20516;-68
2021/03/30 08:34:27;;;;;;;37.00;24.77;;;359.30;1536.00;;;;;;5072309;28;20054;-66
2021/03/30 08:36:55;;;;;;;45.60;25.92;;;384.10;1510.40;;;;;;5073022;28;20496;-67
2021/03/30 08:39:21;;;;;;;44.90;29.42;;;384.20;1510.40;;;;;;5076624;28;20388;-67
2021/03/30 08:41:47;;;;;;;43.33;28.42;;;384.20;1510.40;;;;;;5076285;28;20016;-68
2021/03/30 08:44:41;;;;;;;40.65;24.63;;;384.30;1510.40;;;;;;5076458;28;20028;-68
2021/03/30 08:47:08;;;;;;;37.75;24.67;;;384.30;1484.80;;;;;;5076219;28;20069;-68
2021/03/30 08:49:34;;;;;;;40.08;26.58;;;384.40;1484.80;;;;;;5076809;28;20032;-66
2021/03/30 08:52:04;;;;;;;39.95;24.38;;;384.40;1484.80;;;;;;5076064;28;20468;-66
2021/03/30 08:54:47;;;;;;;37.08;23.13;;;384.50;1484.80;;;;;;5076350;28;20024;-68
2021/03/30 08:57:19;;;;;;;35.90;23.02;;;384.40;1484.80;;;;;;5083845;28;20024;-68
2021/03/30 08:59:46;;;;;;;113.82;65.50;;;384.40;1484.80;;;;;;5079282;28;20045;-70
2021/03/30 09:02:12;;;;;;;137.23;78.72;;;384.40;1484.80;;;;;;5075506;28;20437;-69
2021/03/30 09:04:40;;;;;;;84.15;43.38;;;384.50;1433.60;;;;;;5075955;28;20035;-61
2021/03/30 09:07:07;;;;;;;49.08;29.00;;;384.50;1433.60;;;;;;5078035;28;20050;-69
2021/03/30 09:09:35;;;;;;;45.95;24.70;;;384.60;1408.00;;;;;;5096246;28;20097;-70
2021/03/30 09:12:27;;;;;;;42.83;21.92;;;384.70;1382.40;;;;;;5096354;28;20044;-66
2021/03/30 09:15:02;;;;;;;37.00;20.63;;;384.80;1382.40;;;;;;5090751;28;20032;-62
2021/03/30 09:17:29;;;;;;;38.55;26.10;;;384.90;1382.40;;;;;;5084892;28;20031;-69
2021/03/30 09:19:56;;;;;;;31.40;18.40;;;384.90;1382.40;;;;;;5082375;28;20126;-70
2021/03/30 09:25:10;;;;;;;32.63;15.20;;;409.70;1382.40;;;;;;5077569;28;20028;-70
2021/03/30 09:27:39;;;;;;;32.05;16.48;;;409.80;1382.40;;;;;;5084131;28;20034;-66
2021/03/30 09:30:20;;;;;;;30.08;15.85;;;409.90;1382.40;;;;;;5078193;28;20040;-69
2021/03/30 09:32:47;;;;;;;32.10;20.13;;;410.00;1382.40;;;;;;5075624;28;20024;-64
2021/03/30 09:35:21;;;;;;;39.22;21.27;;;410.00;1356.80;;;;;;5078148;28;20518;-65
2021/03/30 09:37:49;;;;;;;39.53;20.55;;;410.20;1356.80;;;;;;5087315;28;20093;-63
2021/03/30 09:40:24;;;;;;;37.17;18.48;;;410.30;1356.80;;;;;;5093119;28;20412;-71
2021/03/30 09:42:51;;;;;;;29.90;17.48;;;410.40;1356.80;;;;;;5085984;28;20032;-63
2021/03/30 09:45:23;;;;;;;29.00;17.02;;;410.40;1356.80;;;;;;5105045;28;20058;-70
2021/03/30 09:47:50;;;;;;;25.80;16.85;;;410.50;1356.80;;;;;;5095536;28;20031;-70
2021/03/30 09:50:20;;;;;;;27.10;16.00;;;435.20;1356.80;;;;;;5095751;28;20026;-69
2021/03/30 09:52:47;;;;;;;28.02;15.23;;;435.20;1331.20;;;;;;5102276;28;20024;-69
2021/03/30 09:55:31;;;;;;;31.27;14.60;;;435.30;1331.20;;;;;;5115822;28;20027;-61
2021/03/30 09:58:04;;;;;;;;;;;435.30;1305.60;;;;;;5075304;28;20033;-70
2021/03/30 10:00:32;;;;;;;25.70;14.68;;;435.40;1305.60;;;;;;5075126;28;19935;-65
2021/03/30 10:02:59;;;;;;;25.30;13.63;;;435.50;1331.20;;;;;;5074548;28;20055;-69
2021/03/30 10:05:32;;;;;;;25.45;13.82;;;435.50;1305.60;;;;;;5100861;28;20080;-65
2021/03/30 10:07:58;;;;;;;27.80;13.05;;;435.60;1305.60;;;;;;5115261;28;20023;-66
2021/03/30 10:10:24;;;;;;;20.70;10.00;;;435.60;1280.00;;;;;;5115489;28;20027;-61
2021/03/30 10:12:55;;;;;;;18.13;10.32;;;435.70;1305.60;;;;;;5103371;28;20032;-63
2021/03/30 10:15:36;;;;;;;18.75;10.10;;;435.70;1280.00;;;;;;5098187;28;20028;-61
2021/03/30 10:18:06;;;;;;;19.33;10.07;;;435.70;1280.00;;;;;;5081663;28;20048;-68
2021/03/30 10:20:36;;;;;;;19.52;8.30;;;435.70;1280.00;;;;;;5091310;28;20044;-66
2021/03/30 10:23:16;;;;;;;15.82;7.90;;;435.80;1280.00;;;;;;5098226;28;20044;-68
2021/03/30 10:25:43;;;;;;;19.38;7.90;;;435.80;1280.00;;;;;;5087300;28;20085;-68
2021/03/30 10:28:09;;;;;;;18.67;7.68;;;435.90;1203.20;;;;;;5104224;28;20034;-64
2021/03/30 10:30:43;;;;;;;19.25;8.05;;;435.90;1203.20;;;;;;5091207;28;20031;-65
2021/03/30 10:33:14;;;;;;;22.48;8.05;;;436.00;1203.20;;;;;;5099954;28;20028;-65
2021/03/30 10:35:41;;;;;;;15.88;8.68;;;436.10;1203.20;;;;;;5100167;28;20028;-67
2021/03/30 10:38:08;;;;;;;26.98;16.85;;;436.10;1203.20;;;;;;5102653;28;20036;-69
2021/03/30 10:40:39;;;;;;;23.90;11.70;;;460.80;1203.20;;;;;;5094444;28;20384;-69
2021/03/30 10:43:22;;;;;;;19.17;9.85;;;460.90;1203.20;;;;;;5093973;28;20051;-67
2021/03/30 10:45:49;;;;;;;15.95;8.18;;;460.90;1203.20;;;;;;5084812;28;20539;-66
2021/03/30 10:48:15;;;;;;;18.17;9.57;;;461.00;1177.60;;;;;;5103907;28;20035;-69
2021/03/30 10:50:41;;;;;;;18.08;8.98;;;461.10;1203.20;;;;;;5104373;28;20365;-70
2021/03/30 10:53:08;;;;;;;17.98;8.82;;;461.30;1228.80;;;;;;5102521;28;20103;-69
2021/03/30 10:55:34;;;;;;;21.23;9.65;;;461.30;1228.80;;;;;;5102246;28;20031;-69
2021/03/30 10:58:08;;;;;;;18.85;8.85;;;461.40;1228.80;;;;;;5102048;28;20377;-68
2021/03/30 11:00:34;;;;;;;;;;;461.50;1177.60;;;;;;5103971;28;20225;-69
2021/03/30 11:02:59;;;;;;;24.35;9.30;;;461.50;1177.60;;;;;;5092503;28;19911;-67
2021/03/30 11:05:27;;;;;;;17.98;8.73;;;461.50;1177.60;;;;;;5092866;28;20020;-69
2021/03/30 11:07:53;;;;;;;19.48;9.55;;;461.50;1177.60;;;;;;5092371;28;20017;-63
2021/03/30 11:10:22;;;;;;;16.73;9.38;;;461.60;1152.00;;;;;;5103745;28;20034;-69
2021/03/30 11:12:47;;;;;;;15.52;8.63;;;486.40;1228.80;;;;;;5103913;28;20047;-69
2021/03/30 11:15:14;;;;;;;14.65;7.80;;;486.40;1228.80;;;;;;5101562;28;20505;-63
2021/03/30 11:17:40;;;;;;;13.65;7.82;;;486.40;1177.60;;;;;;5092800;28;20020;-69
2021/03/30 11:20:09;;;;;;;14.38;7.25;;;486.40;1177.60;;;;;;5102755;28;20028;-68
2021/03/30 11:22:34;;;;;;;17.65;7.80;;;486.50;1177.60;;;;;;5089504;28;20621;-66
2021/03/30 11:25:03;;;;;;;17.63;7.65;;;486.50;1203.20;;;;;;5092904;28;20045;-65
2021/03/30 11:27:32;;;;;;;17.30;7.15;;;486.50;1203.20;;;;;;5075776;28;20373;-67
2021/03/30 11:30:08;;;;;;;14.60;7.13;;;486.40;1177.60;;;;;;5082136;28;20618;-62
2021/03/30 11:32:39;;;;;;;14.10;7.55;;;486.50;1177.60;;;;;;5073442;28;20503;-69
2021/03/30 11:35:17;;;;;;;15.50;6.90;;;486.60;1228.80;;;;;;5073314;28;20028;-69
2021/03/30 11:37:50;;;;;;;12.63;7.07;;;486.70;1203.20;;;;;;5073064;28;20029;-68
2021/03/30 11:40:17;;;;;;;19.95;9.75;;;486.70;1177.60;;;;;;5073506;28;20044;-68
2021/03/30 11:42:42;;;;;;;16.15;8.27;;;486.70;1177.60;;;;;;5072673;28;20090;-69
2021/03/30 11:45:11;;;;;;;16.30;7.75;;;486.70;1203.20;;;;;;5073082;28;20044;-64
2021/03/30 11:47:37;;;;;;;11.40;6.60;;;486.80;1228.80;;;;;;5072575;28;20063;-67
2021/03/30 11:50:06;;;;;;;24.90;10.10;;;486.80;1203.20;;;;;;5073202;28;20032;-68
2021/03/30 11:52:32;;;;;;;17.63;8.40;;;486.90;1203.20;;;;;;5077388;28;20031;-65
2021/03/30 11:54:58;;;;;;;14.15;7.20;;;487.00;1228.80;;;;;;5082004;28;20469;-71
2021/03/30 11:57:24;;;;;;;11.13;5.57;;;487.00;1203.20;;;;;;5073822;28;20035;-63
2021/03/30 11:59:50;;;;;;;11.70;6.20;;;486.90;1177.60;;;;;;5077701;28;20446;-65
2021/03/30 12:02:16;;;;;;;14.38;6.72;;;486.90;1177.60;;;;;;5082163;28;20024;-65
2021/03/30 12:04:42;;;;;;;13.75;6.90;;;486.90;1203.20;;;;;;5093111;28;20073;-70
2021/03/30 12:07:08;;;;;;;10.60;4.65;;;486.80;1203.20;;;;;;5089786;28;20023;-65
2021/03/30 12:09:34;;;;;;;15.77;5.97;;;486.50;1203.20;;;;;;5091135;28;20108;-65
2021/03/30 12:11:59;;;;;;;8.18;5.10;;;486.40;1228.80;;;;;;5102437;28;20030;-62
2021/03/30 12:14:25;;;;;;;11.57;5.43;;;486.40;1254.40;;;;;;5100965;28;20016;-63
2021/03/30 12:16:51;;;;;;;12.43;6.65;;;461.70;1254.40;;;;;;5100564;28;20483;-71